Time;durP1;ratioP1;P1;durP2;ratioP2;P2;SDS_P1;SDS_P2;PMS_P1;PMS_P2;Temp;Humidity;BMP_temperature;BMP_pressure;BME280_temperature;BME280_humidity;BME280_pressure;Samples;Min_cycle;Max_cycle;Signal;HPM_P1;HPM_P2
2024/04/20 00:00:50;;;;;;;;;;;;;;;10.80;76.13;100321.66;5511550;25;19932;-89
2024/04/20 00:03:15;;;;;;;;;;;;;;;10.80;75.80;100332.38;5523586;25;19979;-89
2024/04/20 00:05:40;;;;;;;;;;;;;;;10.80;75.78;100332.38;5517162;25;19927;-90
2024/04/20 00:08:05;;;;;;;;;;;;;;;10.78;75.49;100336.38;5519967;25;20567;-89
2024/04/20 00:10:30;;;;;;;;;;;;;;;10.77;75.79;100342.78;5525586;25;19982;-90
2024/04/20 00:12:56;;;;;;;;;;;;;;;10.74;75.93;100345.97;5512123;25;19935;-89
2024/04/20 00:15:21;;;;;;;;;;;;;;;10.73;75.76;100347.03;5519597;25;19928;-90
2024/04/20 00:17:46;;;;;;;;;;;;;;;10.73;75.30;100344.38;5512823;25;19928;-90
2024/04/20 00:20:11;;;;;;;;;;;;;;;10.70;75.43;100353.72;5521422;25;19932;-89
2024/04/20 00:22:36;;;;;;;;;;;;;;;10.68;75.21;100352.38;5524553;25;19955;-88
2024/04/20 00:25:02;;;;;;;;;;;;;;;10.68;75.51;100360.41;5513898;25;19928;-88
2024/04/20 00:27:27;;;;;;;;;;;;;;;10.67;75.07;100361.47;5520373;25;20368;-88
2024/04/20 00:29:52;;;;;;;;;;;;;;;10.66;75.33;100367.91;5520245;25;19964;-89
2024/04/20 00:32:18;;;;;;;;;;;;;;;10.64;75.38;100376.22;5519742;25;20019;-89
2024/04/20 00:34:43;;;;;;;;;;;;;;;10.63;75.07;100379.16;5519400;25;20268;-89
2024/04/20 00:37:09;;;;;;;;;;;;;;;10.64;75.05;100381.56;5519757;26;19936;-89
2024/04/20 00:39:34;;;;;;;;;;;;;;;10.64;74.84;100386.13;5516573;25;19927;-89
2024/04/20 00:41:59;;;;;;;;;;;;;;;10.63;74.68;100389.88;5523329;25;19942;-89
2024/04/20 00:44:25;;;;;;;;;;;;;;;10.62;74.83;100390.94;5523461;25;19927;-89
2024/04/20 00:47:01;;;;;;;;;;;;;;;10.61;74.84;100394.69;5524636;25;19946;-89
2024/04/20 00:49:29;;;;;;;;;;;;;;;10.54;74.96;100398.34;5508735;26;19927;-89
2024/04/20 00:51:54;;;;;;;;;;;;;;;10.52;74.82;100405.84;5517127;25;20021;-89
2024/04/20 00:54:19;;;;;;;;;;;;;;;10.50;74.81;100407.16;5518058;25;20392;-89
2024/04/20 00:56:45;;;;;;;;;;;;;;;10.49;74.89;100410.91;5516163;25;19939;-89
2024/04/20 00:59:10;;;;;;;;;;;;;;;10.49;75.21;100414.41;5519975;25;19928;-88
2024/04/20 01:01:35;;;;;;;;;;;;;;;10.48;75.07;100415.47;5520217;25;19927;-88
2024/04/20 01:04:01;;;;;;;;;;;;;;;10.46;75.17;100416.78;5516170;25;19946;-90
2024/04/20 01:06:26;;;;;;;;;;;;;;;10.46;75.38;100427.50;5520147;25;19935;-89
2024/04/20 01:08:52;;;;;;;;;;;;;;;10.45;75.07;100426.69;5523699;25;19995;-89
2024/04/20 01:11:18;;;;;;;;;;;;;;;10.43;75.39;100428.81;5529129;25;19927;-90
2024/04/20 01:13:52;;;;;;;;;;;;;;;10.42;75.37;100426.41;5520822;25;19966;-89
2024/04/20 01:16:17;;;;;;;;;;;;;;;10.41;75.63;100432.78;5526388;25;19927;-89
2024/04/20 01:18:43;;;;;;;;;;;;;;;10.41;75.53;100436.31;5520818;25;19933;-90
2024/04/20 01:21:08;;;;;;;;;;;;;;;10.42;75.34;100445.16;5524240;25;19934;-89
2024/04/20 01:23:33;;;;;;;;;;;;;;;10.42;75.17;100454.00;5518797;25;20456;-89
2024/04/20 01:25:59;;;;;;;;;;;;;;;10.42;75.13;100448.63;5513573;25;19931;-88
2024/04/20 01:28:24;;;;;;;;;;;;;;;10.42;75.02;100451.31;5524613;25;19927;-89
2024/04/20 01:30:49;;;;;;;;;;;;;;;10.43;74.85;100458.28;5518140;25;19927;-89
2024/04/20 01:33:14;;;;;;;;;;;;;;;10.44;74.92;100469.81;5520519;25;19927;-89
2024/04/20 01:35:41;;;;;;;;;;;;;;;10.42;74.71;100464.69;5519355;25;19928;-89
2024/04/20 01:38:07;;;;;;;;;;;;;;;10.41;74.72;100468.44;5516405;25;19928;-89
2024/04/20 01:40:32;;;;;;;;;;;;;;;10.42;74.64;100482.63;5482218;26;19935;-90
2024/04/20 01:42:58;;;;;;;;;;;;;;;10.42;74.41;100483.44;5489653;26;19960;-89
2024/04/20 01:45:23;;;;;;;;;;;;;;;10.43;74.34;100482.38;5490214;26;21890;-89
2024/04/20 01:47:48;;;;;;;;;;;;;;;10.39;74.13;100486.59;5484107;26;20903;-89
2024/04/20 01:50:15;;;;;;;;;;;;;;;10.39;74.36;100493.84;5479657;26;19928;-89
2024/04/20 01:52:40;;;;;;;;;;;;;;;10.38;74.44;100501.06;5480751;26;19938;-89
2024/04/20 01:55:06;;;;;;;;;;;;;;;10.38;74.29;100503.75;5454393;26;19928;-90
2024/04/20 01:57:31;;;;;;;;;;;;;;;10.34;74.31;100505.31;5486163;26;19932;-90
2024/04/20 01:59:56;;;;;;;;;;;;;;;10.34;74.55;100515.22;5483907;26;19928;-90
2024/04/20 02:02:21;;;;;;;;;;;;;;;10.28;74.08;100509.81;5485246;26;19950;-90
2024/04/20 02:04:47;;;;;;;;;;;;;;;10.25;74.71;100515.69;5478559;26;19935;-91
2024/04/20 02:07:12;;;;;;;;;;;;;;;10.25;74.75;100521.03;5486619;26;19928;-90
2024/04/20 02:09:37;;;;;;;;;;;;;;;10.24;74.85;100527.44;5484845;26;19940;-90
2024/04/20 02:12:03;;;;;;;;;;;;;;;10.23;74.77;100531.19;5486176;26;20322;-90
2024/04/20 02:14:28;;;;;;;;;;;;;;;10.23;74.44;100533.88;5483163;26;20337;-90
2024/04/20 02:16:53;;;;;;;;;;;;;;;10.22;74.60;100542.13;5490214;26;20328;-90
2024/04/20 02:19:18;;;;;;;;;;;;;;;10.22;74.35;100545.59;5490062;26;19928;-91
2024/04/20 02:21:44;;;;;;;;;;;;;;;10.20;74.41;100549.56;5483574;26;19928;-90
2024/04/20 02:24:09;;;;;;;;;;;;;;;10.15;74.71;100549.50;5485647;26;19928;-89
2024/04/20 02:26:34;;;;;;;;;;;;;;;10.17;74.36;100561.59;5488060;26;20025;-90
2024/04/20 02:29:00;;;;;;;;;;;;;;;10.14;73.63;100567.44;5484232;26;20372;-89
2024/04/20 02:31:25;;;;;;;;;;;;;;;10.10;73.46;100565.53;5489512;26;19928;-88
2024/04/20 02:33:50;;;;;;;;;;;;;;;10.07;73.32;100569.50;5483193;26;19928;-90
2024/04/20 02:36:16;;;;;;;;;;;;;;;10.02;72.97;100584.69;5484398;26;19928;-89
2024/04/20 02:38:41;;;;;;;;;;;;;;;9.95;73.13;100584.88;5477915;26;19928;-87
2024/04/20 02:41:07;;;;;;;;;;;;;;;9.92;72.83;100594.22;5482059;26;21993;-89
2024/04/20 02:43:32;;;;;;;;;;;;;;;9.89;72.76;100597.38;5475654;26;20427;-90
2024/04/20 02:45:57;;;;;;;;;;;;;;;9.83;72.72;100609.06;5486742;26;19968;-89
2024/04/20 02:48:22;;;;;;;;;;;;;;;9.80;73.02;100616.78;5480134;26;19935;-88
2024/04/20 02:50:47;;;;;;;;;;;;;;;9.78;73.12;100619.69;5480285;26;19929;-88
2024/04/20 02:53:13;;;;;;;;;;;;;;;9.79;73.01;100626.66;5478107;26;19928;-88
2024/04/20 02:55:38;;;;;;;;;;;;;;;9.77;72.91;100630.63;5483008;26;19928;-88
2024/04/20 02:58:03;;;;;;;;;;;;;;;9.77;72.99;100627.97;5481851;26;19960;-88
2024/04/20 03:00:28;;;;;;;;;;;;;;;9.79;73.24;100652.59;5479854;26;20387;-88
2024/04/20 03:02:54;;;;;;;;;;;;;;;9.80;73.17;100647.00;5481521;26;20373;-89
2024/04/20 03:05:21;;;;;;;;;;;;;;;9.82;73.03;100658.28;5477129;26;20873;-87
2024/04/20 03:07:46;;;;;;;;;;;;;;;9.84;72.56;100666.88;5483467;26;20017;-89
2024/04/20 03:10:11;;;;;;;;;;;;;;;9.79;72.42;100664.13;5488321;26;19928;-87
2024/04/20 03:12:37;;;;;;;;;;;;;;;9.74;72.50;100674.75;5475321;26;19928;-89
2024/04/20 03:15:02;;;;;;;;;;;;;;;9.71;72.36;100675.25;5485023;26;19928;-87
2024/04/20 03:17:27;;;;;;;;;;;;;;;9.68;72.54;100684.53;5478352;26;19928;-88
2024/04/20 03:19:53;;;;;;;;;;;;;;;9.66;72.51;100692.00;5479582;26;19939;-88
2024/04/20 03:22:18;;;;;;;;;;;;;;;9.64;72.46;100690.63;5480906;26;22113;-89
2024/04/20 03:24:43;;;;;;;;;;;;;;;9.58;72.65;100694.28;5486848;26;20000;-87
2024/04/20 03:27:09;;;;;;;;;;;;;;;9.55;72.67;100694.78;5458652;26;19928;-88
2024/04/20 03:29:34;;;;;;;;;;;;;;;9.53;72.38;100707.59;5480544;26;20420;-88
2024/04/20 03:31:59;;;;;;;;;;;;;;;9.50;72.21;100714.19;5480741;26;19935;-87
2024/04/20 03:34:24;;;;;;;;;;;;;;;9.51;72.36;100715.81;5479651;26;19935;-88
2024/04/20 03:36:50;;;;;;;;;;;;;;;9.50;71.73;100732.94;5480195;26;20827;-86
2024/04/20 03:39:16;;;;;;;;;;;;;;;9.45;71.49;100724.81;5483287;26;19935;-88
2024/04/20 03:41:42;;;;;;;;;;;;;;;9.41;71.49;100738.91;5477942;26;19935;-90
2024/04/20 03:44:07;;;;;;;;;;;;;;;9.31;71.15;100743.03;5482991;26;19934;-89
2024/04/20 03:46:33;;;;;;;;;;;;;;;9.27;71.51;100757.94;5479156;26;19928;-87
2024/04/20 03:48:58;;;;;;;;;;;;;;;9.24;71.41;100754.91;5485748;26;19928;-87
2024/04/20 03:51:23;;;;;;;;;;;;;;;9.21;71.66;100768.78;5479668;26;20388;-87
2024/04/20 03:53:48;;;;;;;;;;;;;;;9.18;71.43;100779.94;5477972;26;20264;-89
2024/04/20 03:56:13;;;;;;;;;;;;;;;9.16;71.48;100787.38;5488834;26;19927;-87
2024/04/20 03:58:39;;;;;;;;;;;;;;;9.12;71.50;100794.25;5482278;26;19928;-88
2024/04/20 04:01:04;;;;;;;;;;;;;;;9.11;71.33;100801.44;5477875;26;19936;-86
2024/04/20 04:03:30;;;;;;;;;;;;;;;9.06;71.04;100810.19;5483838;26;19928;-88
2024/04/20 04:05:55;;;;;;;;;;;;;;;8.99;70.97;100816.72;5478868;26;19977;-86
2024/04/20 04:08:20;;;;;;;;;;;;;;;8.97;71.38;100826.81;5489982;26;20202;-87
2024/04/20 04:10:45;;;;;;;;;;;;;;;8.97;71.05;100827.63;5482020;26;19997;-86
2024/04/20 04:13:13;;;;;;;;;;;;;;;8.97;70.84;100834.81;5444287;26;20400;-87
2024/04/20 04:15:38;;;;;;;;;;;;;;;8.91;70.33;100849.13;5486373;26;19934;-87
2024/04/20 04:18:03;;;;;;;;;;;;;;;8.82;70.21;100863.91;5488617;26;19928;-87
2024/04/20 04:20:29;;;;;;;;;;;;;;;8.77;70.41;100860.06;5482776;26;20004;-88
2024/04/20 04:22:54;;;;;;;;;;;;;;;8.73;70.04;100869.59;5478350;26;19932;-88
2024/04/20 04:25:19;;;;;;;;;;;;;;;8.70;70.41;100877.25;5485466;26;20174;-88
2024/04/20 04:27:44;;;;;;;;;;;;;;;8.69;70.27;100879.13;5484958;26;19959;-87
2024/04/20 04:30:10;;;;;;;;;;;;;;;8.68;69.89;100885.50;5484001;26;19940;-88
2024/04/20 04:32:36;;;;;;;;;;;;;;;8.64;70.02;100892.38;5477364;26;19960;-88
2024/04/20 04:35:01;;;;;;;;;;;;;;;8.61;70.16;100897.31;5482647;26;20372;-88
2024/04/20 04:37:28;;;;;;;;;;;;;;;8.63;70.08;100903.28;5486125;26;19943;-88
2024/04/20 04:39:54;;;;;;;;;;;;;;;8.63;69.94;100912.09;5477216;26;22065;-88
2024/04/20 04:42:19;;;;;;;;;;;;;;;8.62;70.11;100909.66;5484946;26;20025;-88
2024/04/20 04:44:44;;;;;;;;;;;;;;;8.61;69.93;100918.69;5488788;26;20273;-87
2024/04/20 04:47:09;;;;;;;;;;;;;;;8.59;69.70;100929.63;5485614;26;19928;-89
2024/04/20 04:49:35;;;;;;;;;;;;;;;8.58;69.90;100924.50;5486126;26;19935;-89
2024/04/20 04:52:00;;;;;;;;;;;;;;;8.59;70.09;100942.97;5487688;26;19938;-88
2024/04/20 04:54:25;;;;;;;;;;;;;;;8.57;69.90;100941.56;5480089;26;19935;-88
2024/04/20 04:56:52;;;;;;;;;;;;;;;8.58;70.08;100946.69;5486118;26;19996;-89
2024/04/20 04:59:21;;;;;;;;;;;;;;;8.59;69.75;100950.97;5485657;26;20439;-90
2024/04/20 05:01:46;;;;;;;;;;;;;;;8.60;69.77;100949.94;5482651;26;20383;-88
2024/04/20 05:04:11;;;;;;;;;;;;;;;8.60;69.84;100955.28;5477185;26;19928;-87
2024/04/20 05:06:36;;;;;;;;;;;;;;;8.61;69.58;100962.25;5482394;26;20010;-88
2024/04/20 05:09:01;;;;;;;;;;;;;;;8.62;69.47;100968.44;5484597;26;19936;-87
2024/04/20 05:11:26;;;;;;;;;;;;;;;8.61;69.57;100975.59;5444244;26;19935;-88
2024/04/20 05:13:52;;;;;;;;;;;;;;;8.60;69.61;100973.16;5448886;26;20381;-87
2024/04/20 05:16:17;;;;;;;;;;;;;;;8.61;69.18;100986.28;5484339;26;19928;-87
2024/04/20 05:18:42;;;;;;;;;;;;;;;8.60;69.48;100995.34;5444046;26;19947;-89
2024/04/20 05:21:07;;;;;;;;;;;;;;;8.60;69.47;101007.88;5478897;26;19929;-88
2024/04/20 05:23:33;;;;;;;;;;;;;;;8.61;69.60;101020.19;5478731;26;19928;-88
2024/04/20 05:25:58;;;;;;;;;;;;;;;8.59;69.46;101023.09;5483611;26;20445;-88
2024/04/20 05:28:25;;;;;;;;;;;;;;;8.59;69.40;101027.63;5475462;26;19928;-90
2024/04/20 05:30:50;;;;;;;;;;;;;;;8.61;69.67;101036.22;5478924;26;20494;-87
2024/04/20 05:33:15;;;;;;;;;;;;;;;8.61;69.51;101041.56;5480522;26;19963;-88
2024/04/20 05:35:41;;;;;;;;;;;;;;;8.59;69.30;101046.31;5483279;26;19996;-88
2024/04/20 05:38:06;;;;;;;;;;;;;;;8.57;69.26;101043.88;5480039;26;20368;-88
2024/04/20 05:40:31;;;;;;;;;;;;;;;8.57;69.52;101059.09;5481331;26;19943;-88
2024/04/20 05:42:57;;;;;;;;;;;;;;;8.56;69.38;101060.13;5476532;26;20269;-87
2024/04/20 05:45:25;;;;;;;;;;;;;;;8.53;69.04;101063.25;5477334;26;20000;-88
2024/04/20 05:47:50;;;;;;;;;;;;;;;8.54;69.58;101063.03;5480768;26;19943;-88
2024/04/20 05:50:15;;;;;;;;;;;;;;;8.56;69.47;101071.63;5485433;26;19935;-88
2024/04/20 05:52:41;;;;;;;;;;;;;;;8.59;69.42;101079.19;5476165;26;19940;-88
2024/04/20 05:55:06;;;;;;;;;;;;;;;8.61;69.24;101084.28;5483144;26;19928;-86
2024/04/20 05:57:31;;;;;;;;;;;;;;;8.64;69.23;101083.88;5445261;26;20376;-89
2024/04/20 05:59:56;;;;;;;;;;;;;;;8.70;69.18;101085.63;5476780;26;19928;-87
2024/04/20 06:02:22;;;;;;;;;;;;;;;8.74;69.13;101089.47;5477220;26;19935;-89
2024/04/20 06:04:49;;;;;;;;;;;;;;;8.77;69.20;101100.50;5484089;26;19936;-89
2024/04/20 06:07:15;;;;;;;;;;;;;;;8.77;68.68;101105.84;5483623;26;19928;-88
2024/04/20 06:09:41;;;;;;;;;;;;;;;8.76;68.26;101112.22;5480299;26;19939;-88
2024/04/20 06:12:07;;;;;;;;;;;;;;;8.78;68.63;101102.13;5479128;26;20289;-87
2024/04/20 06:14:33;;;;;;;;;;;;;;;8.83;68.50;101120.16;5473624;26;19995;-87
2024/04/20 06:16:58;;;;;;;;;;;;;;;8.89;68.38;101119.25;5442089;26;20449;-88
2024/04/20 06:19:23;;;;;;;;;;;;;;;8.90;67.55;101125.41;5475582;26;20403;-87
2024/04/20 06:21:48;;;;;;;;;;;;;;;8.87;67.38;101128.53;5477747;26;19943;-88
2024/04/20 06:24:13;;;;;;;;;;;;;;;8.86;67.82;101137.59;5481080;26;19935;-86
2024/04/20 06:26:38;;;;;;;;;;;;;;;8.89;67.64;101150.50;5472936;26;20440;-87
2024/04/20 06:29:04;;;;;;;;;;;;;;;8.87;67.50;101152.59;5475425;26;19928;-88
2024/04/20 06:31:29;;;;;;;;;;;;;;;8.82;67.29;101161.28;5473281;26;19935;-87
2024/04/20 06:33:55;;;;;;;;;;;;;;;8.77;67.35;101166.47;5477658;26;19928;-87
2024/04/20 06:36:20;;;;;;;;;;;;;;;8.75;67.35;101177.38;5481299;26;19935;-89
2024/04/20 06:38:45;;;;;;;;;;;;;;;8.74;67.71;101180.28;5483720;26;19932;-88
2024/04/20 06:41:10;;;;;;;;;;;;;;;8.76;67.85;101181.69;5480580;26;19938;-87
2024/04/20 06:43:36;;;;;;;;;;;;;;;8.82;68.19;101190.69;5482008;26;20353;-90
2024/04/20 06:46:01;;;;;;;;;;;;;;;8.84;67.95;101188.59;5454819;26;19928;-89
2024/04/20 06:48:26;;;;;;;;;;;;;;;8.85;67.77;101192.91;5482913;26;19985;-87
2024/04/20 06:50:51;;;;;;;;;;;;;;;8.88;67.86;101196.97;5477594;26;19938;-88
2024/04/20 06:53:17;;;;;;;;;;;;;;;8.94;68.50;101199.53;5480595;26;19935;-88
2024/04/20 06:55:42;;;;;;;;;;;;;;;9.04;68.17;101197.16;5480997;26;19956;-89
2024/04/20 06:58:07;;;;;;;;;;;;;;;9.15;68.14;101208.91;5476925;26;19990;-87
2024/04/20 07:00:33;;;;;;;;;;;;;;;9.25;68.04;101206.53;5480875;26;20375;-89
2024/04/20 07:02:58;;;;;;;;;;;;;;;9.33;67.42;101203.50;5479150;26;19928;-88
2024/04/20 07:05:23;;;;;;;;;;;;;;;9.39;67.53;101204.47;5486390;26;19928;-87
2024/04/20 07:07:48;;;;;;;;;;;;;;;9.46;67.28;101215.06;5481816;26;20279;-89
2024/04/20 07:10:14;;;;;;;;;;;;;;;9.52;67.17;101223.00;5484622;26;19976;-89
2024/04/20 07:12:39;;;;;;;;;;;;;;;9.59;67.01;101225.56;5479775;26;19948;-88
2024/04/20 07:15:04;;;;;;;;;;;;;;;9.64;66.92;101233.72;5474040;26;19934;-88
2024/04/20 07:17:29;;;;;;;;;;;;;;;9.68;66.34;101232.19;5483285;26;19928;-90
2024/04/20 07:19:56;;;;;;;;;;;;;;;9.69;66.18;101245.38;5484218;26;20609;-90
2024/04/20 07:22:22;;;;;;;;;;;;;;;9.66;65.86;101243.13;5449347;26;19995;-90
2024/04/20 07:24:48;;;;;;;;;;;;;;;9.65;65.71;101246.03;5485977;26;19932;-90
2024/04/20 07:27:13;;;;;;;;;;;;;;;9.60;65.19;101259.31;5478455;26;19929;-91
2024/04/20 07:29:38;;;;;;;;;;;;;;;9.58;65.03;101262.22;5486566;26;20432;-91
2024/04/20 07:32:03;;;;;;;;;;;;;;;9.59;65.66;101261.16;5485357;26;19942;-91
2024/04/20 07:34:29;;;;;;;;;;;;;;;9.67;65.65;101266.16;5489664;26;19928;-92
2024/04/20 07:36:54;;;;;;;;;;;;;;;9.74;65.78;101271.44;5476825;26;19928;-91
2024/04/20 07:39:20;;;;;;;;;;;;;;;9.78;65.18;101277.97;5482267;26;21562;-90
2024/04/20 07:41:45;;;;;;;;;;;;;;;9.79;64.84;101290.28;5487173;26;19935;-90
2024/04/20 07:44:10;;;;;;;;;;;;;;;9.78;64.75;101285.97;5485360;26;20010;-90
2024/04/20 07:46:36;;;;;;;;;;;;;;;9.75;64.47;101294.47;5483248;26;20567;-89
2024/04/20 07:49:01;;;;;;;;;;;;;;;9.72;63.72;101292.25;5487071;26;20713;-90
2024/04/20 07:51:26;;;;;;;;;;;;;;;9.71;63.91;101301.34;5482262;26;19936;-90
2024/04/20 07:53:51;;;;;;;;;;;;;;;9.69;63.83;101311.44;5476700;26;19933;-89
2024/04/20 07:56:16;;;;;;;;;;;;;;;9.68;64.00;101317.81;5485802;26;19927;-90
2024/04/20 07:58:42;;;;;;;;;;;;;;;9.67;63.41;101326.91;5487961;26;19946;-89
2024/04/20 08:01:07;;;;;;;;;;;;;;;9.67;63.48;101329.56;5485433;26;19940;-89
2024/04/20 08:03:32;;;;;;;;;;;;;;;9.68;63.85;101336.56;5482574;26;19928;-88
2024/04/20 08:05:57;;;;;;;;;;;;;;;9.70;63.89;101347.88;5485890;26;19932;-88
2024/04/20 08:08:22;;;;;;;;;;;;;;;9.60;63.57;101342.25;5484287;26;20520;-88
2024/04/20 08:10:48;;;;;;;;;;;;;;;9.59;64.75;101344.09;5480147;26;19961;-88
2024/04/20 08:13:13;;;;;;;;;;;;;;;9.60;65.08;101342.25;5474918;26;20376;-88
2024/04/20 08:15:38;;;;;;;;;;;;;;;9.66;64.31;101355.50;5483161;26;19931;-88
2024/04/20 08:18:05;;;;;;;;;;;;;;;9.73;64.31;101360.78;5478061;26;19928;-88
2024/04/20 08:20:30;;;;;;;;;;;;;;;9.76;63.83;101360.34;5451929;26;20714;-88
2024/04/20 08:22:55;;;;;;;;;;;;;;;9.88;64.10;101371.09;5485077;26;19928;-88
2024/04/20 08:25:20;;;;;;;;;;;;;;;10.04;64.54;101372.28;5484065;26;19928;-89
2024/04/20 08:27:45;;;;;;;;;;;;;;;10.14;63.89;101381.38;5480799;26;20577;-88
2024/04/20 08:30:11;;;;;;;;;;;;;;;10.32;64.96;101380.53;5485068;26;19934;-90
2024/04/20 08:32:36;;;;;;;;;;;;;;;10.40;63.22;101377.50;5485034;26;19977;-88
2024/04/20 08:35:01;;;;;;;;;;;;;;;10.44;63.88;101381.38;5485055;26;20004;-90
2024/04/20 08:37:26;;;;;;;;;;;;;;;10.54;63.58;101380.78;5483083;26;19936;-89
2024/04/20 08:39:52;;;;;;;;;;;;;;;10.64;62.67;101382.88;5491214;26;19935;-89
2024/04/20 08:42:28;;;;;;;;;;;;;;;10.71;62.36;101380.91;5479037;26;19937;-89
2024/04/20 08:44:55;;;;;;;;;;;;;;;10.76;61.36;101397.91;5448280;26;19935;-89
2024/04/20 08:47:21;;;;;;;;;;;;;;;10.79;61.06;101392.09;5483154;26;19928;-89
2024/04/20 08:49:47;;;;;;;;;;;;;;;10.79;60.93;101399.31;5479510;26;19928;-89
2024/04/20 08:52:12;;;;;;;;;;;;;;;10.77;59.79;101404.06;5478611;26;19928;-88
2024/04/20 08:54:38;;;;;;;;;;;;;;;10.80;60.65;101407.13;5479601;26;20009;-88
2024/04/20 08:57:03;;;;;;;;;;;;;;;10.81;58.93;101407.94;5481262;26;19940;-88
2024/04/20 08:59:29;;;;;;;;;;;;;;;10.80;59.70;101412.50;5472114;26;19943;-87
2024/04/20 09:01:54;;;;;;;;;;;;;;;10.89;59.80;101418.31;5481827;26;19927;-89
2024/04/20 09:04:21;;;;;;;;;;;;;;;11.07;60.76;101423.53;5481468;26;20078;-90
2024/04/20 09:06:46;;;;;;;;;;;;;;;11.32;60.49;101417.94;5488248;26;20423;-90
2024/04/20 09:09:12;;;;;;;;;;;;;;;11.64;60.11;101428.19;5481782;26;19934;-89
2024/04/20 09:11:37;;;;;;;;;;;;;;;11.94;59.67;101434.19;5478483;26;19928;-89
2024/04/20 09:14:02;;;;;;;;;;;;;;;12.16;59.05;101434.31;5479221;26;19956;-87
2024/04/20 09:16:29;;;;;;;;;;;;;;;12.23;58.21;101444.94;5473051;26;19928;-87
2024/04/20 09:18:54;;;;;;;;;;;;;;;12.15;57.33;101440.75;5485377;26;20707;-89
2024/04/20 09:21:19;;;;;;;;;;;;;;;12.08;57.37;101448.16;5486260;26;19975;-89
2024/04/20 09:23:44;;;;;;;;;;;;;;;11.99;57.55;101461.16;5463889;26;19928;-87
2024/04/20 09:26:11;;;;;;;;;;;;;;;11.91;56.37;101458.03;5480395;26;20265;-87
2024/04/20 09:28:37;;;;;;;;;;;;;;;11.78;56.70;101461.78;5480679;26;20423;-90
2024/04/20 09:31:03;;;;;;;;;;;;;;;11.70;57.29;101462.97;5484341;26;19932;-89
2024/04/20 09:33:28;;;;;;;;;;;;;;;11.59;57.60;101490.66;5475401;26;19994;-91
2024/04/20 09:35:54;;;;;;;;;;;;;;;11.38;57.27;101484.03;5484570;26;20037;-90
2024/04/20 09:38:20;;;;;;;;;;;;;;;11.23;58.14;101488.25;5479961;26;21818;-88
2024/04/20 09:40:51;;;;;;;;;;;;;;;11.14;59.18;101495.84;5479047;26;20584;-89
2024/04/20 09:43:20;;;;;;;;;;;;;;;11.06;58.66;101496.19;5451096;26;19928;-89
2024/04/20 09:45:47;;;;;;;;;;;;;;;11.00;59.61;101503.31;5481628;26;20364;-89
2024/04/20 09:48:14;;;;;;;;;;;;;;;11.01;59.50;101493.38;5478934;26;19935;-89
2024/04/20 09:50:43;;;;;;;;;;;;;;;11.04;59.41;101495.59;5487071;26;20239;-91
2024/04/20 09:53:19;;;;;;;;;;;;;;;11.11;59.36;101497.09;5485533;26;20016;-88
2024/04/20 09:55:46;;;;;;;;;;;;;;;11.26;59.21;101498.50;5484299;26;19928;-90
2024/04/20 09:58:12;;;;;;;;;;;;;;;11.51;59.01;101501.78;5483218;26;19940;-89
2024/04/20 10:00:38;;;;;;;;;;;;;;;11.68;57.87;101508.03;5473050;26;19928;-86
2024/04/20 10:03:07;;;;;;;;;;;;;;;11.78;57.18;101502.06;5476371;26;19939;-87
2024/04/20 10:05:35;;;;;;;;;;;;;;;11.87;57.04;101502.53;5473611;26;19939;-87
2024/04/20 10:08:01;;;;;;;;;;;;;;;11.92;57.38;101510.69;5478434;26;19936;-88
2024/04/20 10:10:27;;;;;;;;;;;;;;;11.92;55.37;101514.19;5477918;26;19929;-91
2024/04/20 10:12:59;;;;;;;;;;;;;;;11.91;56.50;101517.13;5481414;26;19932;-88
2024/04/20 10:15:25;;;;;;;;;;;;;;;11.89;56.23;101525.41;5477624;26;19935;-88
2024/04/20 10:17:50;;;;;;;;;;;;;;;11.86;55.90;101525.91;5477288;26;19928;-88
2024/04/20 10:20:15;;;;;;;;;;;;;;;11.88;55.90;101533.72;5478357;26;20660;-88
2024/04/20 10:22:40;;;;;;;;;;;;;;;12.01;56.38;101531.53;5472620;26;20601;-89
2024/04/20 10:25:10;;;;;;;;;;;;;;;12.22;56.25;101529.28;5469924;26;19997;-87
2024/04/20 10:27:36;;;;;;;;;;;;;;;12.42;56.18;101528.84;5481346;26;19940;-87
2024/04/20 10:30:09;;;;;;;;;;;;;;;12.62;54.08;101546.16;5475538;26;19936;-90
2024/04/20 10:32:35;;;;;;;;;;;;;;;12.81;55.01;101546.75;5479534;26;19928;-87
2024/04/20 10:35:04;;;;;;;;;;;;;;;12.94;54.53;101554.50;5477084;26;20544;-90
2024/04/20 10:37:29;;;;;;;;;;;;;;;13.05;55.02;101557.34;5479048;26;20462;-90
2024/04/20 10:39:54;;;;;;;;;;;;;;;13.10;54.05;101563.59;5478421;26;19944;-87
2024/04/20 10:42:23;;;;;;;;;;;;;;;13.11;53.86;101572.53;5480446;26;19937;-86
2024/04/20 10:44:48;;;;;;;;;;;;;;;13.05;53.52;101568.09;5470056;26;19935;-88
2024/04/20 10:47:17;;;;;;;;;;;;;;;13.01;53.68;101571.28;5476444;26;19928;-87
2024/04/20 10:49:43;;;;;;;;;;;;;;;13.06;54.11;101569.72;5477585;26;19928;-88
2024/04/20 10:52:11;;;;;;;;;;;;;;;13.14;53.67;101574.72;5479302;26;20004;-92
2024/04/20 10:54:37;;;;;;;;;;;;;;;13.27;53.53;101579.78;5480741;26;19928;-83
2024/04/20 10:57:03;;;;;;;;;;;;;;;13.34;53.49;101583.13;5474810;26;19939;-87
2024/04/20 10:59:28;;;;;;;;;;;;;;;13.41;53.25;101581.06;5441964;26;19936;-86
2024/04/20 11:01:53;;;;;;;;;;;;;;;13.50;53.22;101585.00;5472366;26;20005;-89
2024/04/20 11:04:19;;;;;;;;;;;;;;;13.61;52.65;101581.38;5475964;26;20612;-88
2024/04/20 11:06:44;;;;;;;;;;;;;;;13.70;52.36;101589.03;5480125;26;19950;-88
2024/04/20 11:09:10;;;;;;;;;;;;;;;13.74;51.69;101582.09;5480990;26;20627;-89
2024/04/20 11:11:35;;;;;;;;;;;;;;;13.77;52.49;101598.56;5438046;26;20697;-88
2024/04/20 11:14:01;;;;;;;;;;;;;;;13.80;50.78;101597.25;5477521;26;19935;-86
2024/04/20 11:16:27;;;;;;;;;;;;;;;13.87;51.07;101600.59;5478291;26;19940;-88
2024/04/20 11:18:52;;;;;;;;;;;;;;;13.94;51.66;101586.94;5479431;26;19935;-87
2024/04/20 11:21:17;;;;;;;;;;;;;;;14.03;51.85;101602.44;5479436;26;20383;-88
2024/04/20 11:23:43;;;;;;;;;;;;;;;14.13;51.86;101607.94;5478489;26;19936;-87
2024/04/20 11:26:08;;;;;;;;;;;;;;;14.17;49.54;101606.34;5469844;26;20394;-86
2024/04/20 11:28:33;;;;;;;;;;;;;;;14.13;49.10;101615.19;5476961;26;20343;-85
2024/04/20 11:31:01;;;;;;;;;;;;;;;14.03;50.31;101621.28;5472991;26;19941;-87
2024/04/20 11:33:26;;;;;;;;;;;;;;;13.93;50.78;101626.53;5472293;26;19935;-87
2024/04/20 11:35:51;;;;;;;;;;;;;;;13.89;50.51;101623.53;5482184;26;19928;-87
2024/04/20 11:38:17;;;;;;;;;;;;;;;13.88;50.71;101642.63;5476860;26;20006;-86
2024/04/20 11:40:46;;;;;;;;;;;;;;;13.83;50.46;101642.56;5469653;26;19971;-91
2024/04/20 11:43:17;;;;;;;;;;;;;;;13.70;48.12;101642.91;5474625;26;19942;-85
2024/04/20 11:45:46;;;;;;;;;;;;;;;13.58;49.69;101642.97;5471228;26;20037;-86
2024/04/20 11:48:11;;;;;;;;;;;;;;;13.39;48.62;101645.13;5468498;26;19929;-88
2024/04/20 11:50:36;;;;;;;;;;;;;;;13.34;50.18;101652.31;5477804;26;20384;-88
2024/04/20 11:55:46;;;;;;;;;;;;;;;13.23;50.27;101656.69;5470015;26;20395;-87
2024/04/20 11:58:11;;;;;;;;;;;;;;;13.15;49.38;101665.13;5465118;26;19928;-87
2024/04/20 12:00:37;;;;;;;;;;;;;;;13.10;50.95;101671.22;5474432;26;19932;-87
2024/04/20 12:03:03;;;;;;;;;;;;;;;13.06;49.72;101664.69;5473315;26;19936;-87
2024/04/20 12:05:29;;;;;;;;;;;;;;;13.04;50.35;101669.50;5447415;26;19928;-89
2024/04/20 12:07:54;;;;;;;;;;;;;;;13.06;50.67;101670.09;5473850;26;19936;-86
2024/04/20 12:10:19;;;;;;;;;;;;;;;13.12;51.59;101663.75;5476192;26;20012;-85
2024/04/20 12:12:45;;;;;;;;;;;;;;;13.17;50.90;101671.09;5470404;26;19967;-86
2024/04/20 12:15:10;;;;;;;;;;;;;;;13.27;51.60;101672.09;5468059;26;19935;-87
2024/04/20 12:17:35;;;;;;;;;;;;;;;13.46;51.57;101672.69;5472063;26;19936;-86
2024/04/20 12:20:01;;;;;;;;;;;;;;;13.71;49.85;101679.53;5481634;26;20025;-87
2024/04/20 12:22:30;;;;;;;;;;;;;;;13.98;50.69;101677.78;5478627;26;19928;-87
2024/04/20 12:24:55;;;;;;;;;;;;;;;14.27;49.69;101670.38;5474464;26;20593;-88
2024/04/20 12:27:20;;;;;;;;;;;;;;;14.50;49.64;101685.50;5471582;26;19936;-85
2024/04/20 12:29:47;;;;;;;;;;;;;;;14.62;49.80;101688.09;5482009;26;19928;-89
2024/04/20 12:32:14;;;;;;;;;;;;;;;14.65;49.10;101688.38;5450543;26;19934;-86
2024/04/20 12:34:40;;;;;;;;;;;;;;;14.57;48.86;101694.25;5472383;26;19928;-83